sensor_id;sensor_type;location;lat;lon;timestamp;P1;durP1;ratioP1;P2;durP2;ratioP2
23169;SDS011;11753;43.144;24.714;2023-03-23T00:00:43;28.00;;;19.90;;
23169;SDS011;11753;43.144;24.714;2023-03-23T00:01:44;28.05;;;20.73;;
23169;SDS011;11753;43.144;24.714;2023-03-23T00:02:45;28.05;;;19.60;;
23169;SDS011;11753;43.144;24.714;2023-03-23T00:03:49;26.23;;;19.25;;
23169;SDS011;11753;43.144;24.714;2023-03-23T00:04:52;26.35;;;19.13;;
23169;SDS011;11753;43.144;24.714;2023-03-23T00:05:53;26.48;;;18.23;;
23169;SDS011;11753;43.144;24.714;2023-03-23T00:06:59;24.70;;;18.42;;
23169;SDS011;11753;43.144;24.714;2023-03-23T00:08:03;22.00;;;17.10;;
23169;SDS011;11753;43.144;24.714;2023-03-23T00:09:04;24.08;;;18.15;;
23169;SDS011;11753;43.144;24.714;2023-03-23T00:10:08;30.58;;;21.20;;
23169;SDS011;11753;43.144;24.714;2023-03-23T00:11:09;26.17;;;19.55;;
23169;SDS011;11753;43.144;24.714;2023-03-23T00:12:10;24.85;;;18.80;;
23169;SDS011;11753;43.144;24.714;2023-03-23T00:13:15;27.40;;;19.65;;
23169;SDS011;11753;43.144;24.714;2023-03-23T00:14:20;25.52;;;18.10;;
23169;SDS011;11753;43.144;24.714;2023-03-23T00:15:22;26.05;;;18.23;;
23169;SDS011;11753;43.144;24.714;2023-03-23T00:16:25;28.02;;;19.23;;
23169;SDS011;11753;43.144;24.714;2023-03-23T00:17:37;27.08;;;18.92;;
23169;SDS011;11753;43.144;24.714;2023-03-23T00:18:39;24.83;;;18.45;;
23169;SDS011;11753;43.144;24.714;2023-03-23T00:19:39;27.25;;;19.75;;
23169;SDS011;11753;43.144;24.714;2023-03-23T00:20:46;25.08;;;18.60;;
23169;SDS011;11753;43.144;24.714;2023-03-23T00:21:49;24.27;;;18.38;;
23169;SDS011;11753;43.144;24.714;2023-03-23T00:22:53;26.90;;;19.38;;
23169;SDS011;11753;43.144;24.714;2023-03-23T00:24:00;25.30;;;18.90;;
23169;SDS011;11753;43.144;24.714;2023-03-23T00:25:07;24.05;;;18.42;;
23169;SDS011;11753;43.144;24.714;2023-03-23T00:26:08;24.80;;;17.98;;
23169;SDS011;11753;43.144;24.714;2023-03-23T00:27:09;25.63;;;19.13;;
23169;SDS011;11753;43.144;24.714;2023-03-23T00:28:13;26.40;;;19.35;;
23169;SDS011;11753;43.144;24.714;2023-03-23T00:29:18;24.58;;;18.13;;
23169;SDS011;11753;43.144;24.714;2023-03-23T00:30:21;23.67;;;17.42;;
23169;SDS011;11753;43.144;24.714;2023-03-23T00:31:22;27.10;;;19.90;;
23169;SDS011;11753;43.144;24.714;2023-03-23T00:32:24;25.05;;;18.65;;
23169;SDS011;11753;43.144;24.714;2023-03-23T00:33:30;24.83;;;19.17;;
23169;SDS011;11753;43.144;24.714;2023-03-23T00:34:38;26.33;;;19.30;;
23169;SDS011;11753;43.144;24.714;2023-03-23T00:35:40;29.95;;;20.00;;
23169;SDS011;11753;43.144;24.714;2023-03-23T00:36:42;27.95;;;19.58;;
23169;SDS011;11753;43.144;24.714;2023-03-23T00:37:43;28.90;;;20.30;;
23169;SDS011;11753;43.144;24.714;2023-03-23T00:38:46;26.60;;;19.08;;
23169;SDS011;11753;43.144;24.714;2023-03-23T00:39:47;27.27;;;19.60;;
23169;SDS011;11753;43.144;24.714;2023-03-23T00:40:47;24.98;;;18.83;;
23169;SDS011;11753;43.144;24.714;2023-03-23T00:41:48;25.95;;;19.88;;
23169;SDS011;11753;43.144;24.714;2023-03-23T00:42:49;29.90;;;21.30;;
23169;SDS011;11753;43.144;24.714;2023-03-23T00:43:50;27.98;;;19.42;;
23169;SDS011;11753;43.144;24.714;2023-03-23T00:44:51;28.60;;;21.15;;
23169;SDS011;11753;43.144;24.714;2023-03-23T00:46:00;28.60;;;19.27;;
23169;SDS011;11753;43.144;24.714;2023-03-23T00:47:01;29.52;;;20.15;;
23169;SDS011;11753;43.144;24.714;2023-03-23T00:48:10;27.75;;;19.65;;
23169;SDS011;11753;43.144;24.714;2023-03-23T00:49:16;28.40;;;20.20;;
23169;SDS011;11753;43.144;24.714;2023-03-23T00:50:19;26.42;;;19.40;;
23169;SDS011;11753;43.144;24.714;2023-03-23T00:51:20;28.20;;;19.73;;
23169;SDS011;11753;43.144;24.714;2023-03-23T00:52:21;28.27;;;20.30;;
23169;SDS011;11753;43.144;24.714;2023-03-23T00:53:22;29.33;;;19.77;;
23169;SDS011;11753;43.144;24.714;2023-03-23T00:54:23;26.08;;;18.88;;
23169;SDS011;11753;43.144;24.714;2023-03-23T00:55:25;23.70;;;17.35;;
23169;SDS011;11753;43.144;24.714;2023-03-23T00:56:26;24.50;;;19.13;;
23169;SDS011;11753;43.144;24.714;2023-03-23T00:57:29;25.58;;;18.13;;
23169;SDS011;11753;43.144;24.714;2023-03-23T00:58:29;24.20;;;17.20;;
23169;SDS011;11753;43.144;24.714;2023-03-23T00:59:30;24.33;;;18.73;;
23169;SDS011;11753;43.144;24.714;2023-03-23T01:00:31;25.08;;;18.20;;
23169;SDS011;11753;43.144;24.714;2023-03-23T01:01:32;25.67;;;18.65;;
23169;SDS011;11753;43.144;24.714;2023-03-23T01:02:33;26.67;;;18.58;;
23169;SDS011;11753;43.144;24.714;2023-03-23T01:03:36;25.08;;;18.58;;
23169;SDS011;11753;43.144;24.714;2023-03-23T01:04:40;27.52;;;19.20;;
23169;SDS011;11753;43.144;24.714;2023-03-23T01:05:45;24.20;;;18.27;;
23169;SDS011;11753;43.144;24.714;2023-03-23T01:06:52;25.17;;;18.25;;
23169;SDS011;11753;43.144;24.714;2023-03-23T01:07:53;29.05;;;20.50;;
23169;SDS011;11753;43.144;24.714;2023-03-23T01:08:54;28.00;;;19.20;;
23169;SDS011;11753;43.144;24.714;2023-03-23T01:09:56;24.55;;;18.55;;
23169;SDS011;11753;43.144;24.714;2023-03-23T01:11:05;24.92;;;18.30;;
23169;SDS011;11753;43.144;24.714;2023-03-23T01:12:06;26.35;;;19.52;;
23169;SDS011;11753;43.144;24.714;2023-03-23T01:13:08;25.55;;;18.80;;
23169;SDS011;11753;43.144;24.714;2023-03-23T01:14:09;24.20;;;18.60;;
23169;SDS011;11753;43.144;24.714;2023-03-23T01:15:14;24.40;;;18.50;;
23169;SDS011;11753;43.144;24.714;2023-03-23T01:16:17;25.15;;;18.63;;
23169;SDS011;11753;43.144;24.714;2023-03-23T01:17:18;24.23;;;17.55;;
23169;SDS011;11753;43.144;24.714;2023-03-23T01:18:20;24.23;;;17.73;;
23169;SDS011;11753;43.144;24.714;2023-03-23T01:19:21;26.55;;;18.73;;
23169;SDS011;11753;43.144;24.714;2023-03-23T01:20:22;28.10;;;20.25;;
23169;SDS011;11753;43.144;24.714;2023-03-23T01:21:23;24.48;;;18.70;;
23169;SDS011;11753;43.144;24.714;2023-03-23T01:22:25;26.65;;;18.95;;
23169;SDS011;11753;43.144;24.714;2023-03-23T01:23:28;27.10;;;19.45;;
23169;SDS011;11753;43.144;24.714;2023-03-23T01:24:30;25.35;;;18.80;;
23169;SDS011;11753;43.144;24.714;2023-03-23T01:25:32;24.45;;;18.63;;
23169;SDS011;11753;43.144;24.714;2023-03-23T01:26:36;26.55;;;19.08;;
23169;SDS011;11753;43.144;24.714;2023-03-23T01:27:37;26.35;;;19.25;;
23169;SDS011;11753;43.144;24.714;2023-03-23T01:28:39;27.85;;;19.35;;
23169;SDS011;11753;43.144;24.714;2023-03-23T01:29:41;26.15;;;19.30;;
23169;SDS011;11753;43.144;24.714;2023-03-23T01:30:42;24.52;;;18.33;;
23169;SDS011;11753;43.144;24.714;2023-03-23T01:31:43;23.88;;;18.60;;
23169;SDS011;11753;43.144;24.714;2023-03-23T01:32:44;25.80;;;18.83;;
23169;SDS011;11753;43.144;24.714;2023-03-23T01:33:45;24.17;;;17.77;;
23169;SDS011;11753;43.144;24.714;2023-03-23T01:34:46;26.73;;;19.17;;
23169;SDS011;11753;43.144;24.714;2023-03-23T01:35:47;26.95;;;18.25;;
23169;SDS011;11753;43.144;24.714;2023-03-23T01:36:48;26.25;;;18.90;;
23169;SDS011;11753;43.144;24.714;2023-03-23T01:37:49;24.58;;;18.38;;
23169;SDS011;11753;43.144;24.714;2023-03-23T01:38:50;22.80;;;16.83;;
23169;SDS011;11753;43.144;24.714;2023-03-23T01:39:51;24.10;;;17.92;;
23169;SDS011;11753;43.144;24.714;2023-03-23T01:40:55;24.00;;;18.33;;
23169;SDS011;11753;43.144;24.714;2023-03-23T01:41:56;27.00;;;18.60;;
23169;SDS011;11753;43.144;24.714;2023-03-23T01:42:57;26.63;;;18.90;;
23169;SDS011;11753;43.144;24.714;2023-03-23T01:46:38;23.80;;;18.08;;
23169;SDS011;11753;43.144;24.714;2023-03-23T01:47:38;22.15;;;17.15;;
23169;SDS011;11753;43.144;24.714;2023-03-23T01:48:39;24.33;;;18.30;;
23169;SDS011;11753;43.144;24.714;2023-03-23T01:49:44;22.73;;;16.63;;
23169;SDS011;11753;43.144;24.714;2023-03-23T01:50:54;20.65;;;16.33;;
23169;SDS011;11753;43.144;24.714;2023-03-23T01:52:02;23.48;;;17.20;;
23169;SDS011;11753;43.144;24.714;2023-03-23T01:53:06;24.92;;;17.17;;
23169;SDS011;11753;43.144;24.714;2023-03-23T01:54:11;30.13;;;20.25;;
23169;SDS011;11753;43.144;24.714;2023-03-23T01:55:14;26.80;;;19.52;;
23169;SDS011;11753;43.144;24.714;2023-03-23T01:56:16;26.05;;;19.10;;
23169;SDS011;11753;43.144;24.714;2023-03-23T01:57:21;29.17;;;20.15;;
23169;SDS011;11753;43.144;24.714;2023-03-23T01:58:27;28.55;;;19.38;;
23169;SDS011;11753;43.144;24.714;2023-03-23T01:59:32;24.67;;;18.38;;
23169;SDS011;11753;43.144;24.714;2023-03-23T02:00:35;28.85;;;19.75;;
23169;SDS011;11753;43.144;24.714;2023-03-23T02:01:41;26.17;;;18.65;;
23169;SDS011;11753;43.144;24.714;2023-03-23T02:02:46;28.08;;;19.50;;
23169;SDS011;11753;43.144;24.714;2023-03-23T02:03:49;30.65;;;20.35;;
23169;SDS011;11753;43.144;24.714;2023-03-23T02:04:54;30.80;;;20.27;;
23169;SDS011;11753;43.144;24.714;2023-03-23T02:05:57;28.50;;;19.75;;
23169;SDS011;11753;43.144;24.714;2023-03-23T02:07:02;25.20;;;19.30;;
23169;SDS011;11753;43.144;24.714;2023-03-23T02:08:04;26.90;;;19.27;;
23169;SDS011;11753;43.144;24.714;2023-03-23T02:09:08;29.85;;;20.25;;
23169;SDS011;11753;43.144;24.714;2023-03-23T02:10:09;27.30;;;18.88;;
23169;SDS011;11753;43.144;24.714;2023-03-23T02:11:28;25.17;;;18.42;;
23169;SDS011;11753;43.144;24.714;2023-03-23T02:12:28;28.35;;;19.35;;
23169;SDS011;11753;43.144;24.714;2023-03-23T02:13:29;28.50;;;20.38;;
23169;SDS011;11753;43.144;24.714;2023-03-23T02:14:30;25.95;;;18.65;;
23169;SDS011;11753;43.144;24.714;2023-03-23T02:22:29;25.60;;;18.50;;
23169;SDS011;11753;43.144;24.714;2023-03-23T02:23:54;26.30;;;18.73;;
23169;SDS011;11753;43.144;24.714;2023-03-23T02:28:16;25.05;;;17.60;;
23169;SDS011;11753;43.144;24.714;2023-03-23T02:30:30;24.25;;;17.23;;
23169;SDS011;11753;43.144;24.714;2023-03-23T02:34:31;23.60;;;17.20;;
23169;SDS011;11753;43.144;24.714;2023-03-23T02:35:54;23.17;;;17.65;;
23169;SDS011;11753;43.144;24.714;2023-03-23T02:37:02;21.80;;;16.58;;
23169;SDS011;11753;43.144;24.714;2023-03-23T02:40:47;22.38;;;16.10;;
23169;SDS011;11753;43.144;24.714;2023-03-23T02:41:53;24.90;;;17.58;;
23169;SDS011;11753;43.144;24.714;2023-03-23T02:42:58;22.25;;;16.52;;
23169;SDS011;11753;43.144;24.714;2023-03-23T02:44:02;20.80;;;16.02;;
23169;SDS011;11753;43.144;24.714;2023-03-23T02:45:07;21.15;;;15.95;;
23169;SDS011;11753;43.144;24.714;2023-03-23T02:46:10;22.10;;;16.52;;
23169;SDS011;11753;43.144;24.714;2023-03-23T02:47:16;22.42;;;16.08;;
23169;SDS011;11753;43.144;24.714;2023-03-23T02:48:22;21.77;;;17.27;;
23169;SDS011;11753;43.144;24.714;2023-03-23T02:49:29;22.38;;;17.40;;
23169;SDS011;11753;43.144;24.714;2023-03-23T02:50:32;23.20;;;16.95;;
23169;SDS011;11753;43.144;24.714;2023-03-23T02:51:36;21.70;;;16.35;;
23169;SDS011;11753;43.144;24.714;2023-03-23T02:52:39;23.33;;;17.42;;
23169;SDS011;11753;43.144;24.714;2023-03-23T02:53:42;23.25;;;17.35;;
23169;SDS011;11753;43.144;24.714;2023-03-23T02:54:45;22.33;;;17.17;;
23169;SDS011;11753;43.144;24.714;2023-03-23T02:55:48;23.50;;;16.70;;
23169;SDS011;11753;43.144;24.714;2023-03-23T02:56:53;22.45;;;17.08;;
23169;SDS011;11753;43.144;24.714;2023-03-23T02:57:55;22.00;;;17.08;;
23169;SDS011;11753;43.144;24.714;2023-03-23T02:58:57;21.02;;;15.90;;
23169;SDS011;11753;43.144;24.714;2023-03-23T02:59:58;21.25;;;16.63;;
23169;SDS011;11753;43.144;24.714;2023-03-23T03:00:58;20.90;;;16.55;;
23169;SDS011;11753;43.144;24.714;2023-03-23T03:02:11;25.05;;;18.25;;
23169;SDS011;11753;43.144;24.714;2023-03-23T03:03:19;22.73;;;16.88;;
23169;SDS011;11753;43.144;24.714;2023-03-23T03:04:23;21.35;;;16.50;;
23169;SDS011;11753;43.144;24.714;2023-03-23T03:06:53;24.45;;;18.35;;
23169;SDS011;11753;43.144;24.714;2023-03-23T03:11:56;21.92;;;17.23;;
23169;SDS011;11753;43.144;24.714;2023-03-23T03:13:32;22.33;;;16.05;;
23169;SDS011;11753;43.144;24.714;2023-03-23T03:15:31;22.08;;;15.80;;
23169;SDS011;11753;43.144;24.714;2023-03-23T03:16:21;22.20;;;16.67;;
23169;SDS011;11753;43.144;24.714;2023-03-23T03:17:26;20.60;;;15.38;;
23169;SDS011;11753;43.144;24.714;2023-03-23T03:19:52;22.92;;;17.17;;
23169;SDS011;11753;43.144;24.714;2023-03-23T03:20:59;23.05;;;17.63;;
23169;SDS011;11753;43.144;24.714;2023-03-23T03:22:05;22.13;;;16.30;;
23169;SDS011;11753;43.144;24.714;2023-03-23T03:23:08;22.67;;;16.27;;
23169;SDS011;11753;43.144;24.714;2023-03-23T03:24:14;22.25;;;16.80;;
23169;SDS011;11753;43.144;24.714;2023-03-23T03:25:18;21.73;;;16.20;;
23169;SDS011;11753;43.144;24.714;2023-03-23T03:26:20;23.33;;;15.82;;
23169;SDS011;11753;43.144;24.714;2023-03-23T03:27:26;22.95;;;16.45;;
23169;SDS011;11753;43.144;24.714;2023-03-23T03:28:28;22.13;;;15.95;;
23169;SDS011;11753;43.144;24.714;2023-03-23T03:29:30;24.13;;;15.95;;
23169;SDS011;11753;43.144;24.714;2023-03-23T03:30:35;22.73;;;16.80;;
23169;SDS011;11753;43.144;24.714;2023-03-23T03:31:38;23.90;;;16.77;;
23169;SDS011;11753;43.144;24.714;2023-03-23T03:32:48;22.13;;;16.73;;
23169;SDS011;11753;43.144;24.714;2023-03-23T03:33:53;22.00;;;16.02;;
23169;SDS011;11753;43.144;24.714;2023-03-23T03:34:54;22.52;;;15.65;;
23169;SDS011;11753;43.144;24.714;2023-03-23T03:35:55;25.88;;;17.85;;
23169;SDS011;11753;43.144;24.714;2023-03-23T03:36:59;23.17;;;16.85;;
23169;SDS011;11753;43.144;24.714;2023-03-23T03:38:07;21.95;;;16.65;;
23169;SDS011;11753;43.144;24.714;2023-03-23T03:39:10;24.65;;;16.30;;
23169;SDS011;11753;43.144;24.714;2023-03-23T03:40:16;22.58;;;16.77;;
23169;SDS011;11753;43.144;24.714;2023-03-23T03:41:19;21.80;;;17.33;;
23169;SDS011;11753;43.144;24.714;2023-03-23T03:42:20;23.63;;;17.80;;
23169;SDS011;11753;43.144;24.714;2023-03-23T03:43:23;24.08;;;19.02;;
23169;SDS011;11753;43.144;24.714;2023-03-23T03:44:24;25.95;;;21.63;;
23169;SDS011;11753;43.144;24.714;2023-03-23T03:45:24;25.50;;;21.25;;
23169;SDS011;11753;43.144;24.714;2023-03-23T03:46:25;23.83;;;19.48;;
23169;SDS011;11753;43.144;24.714;2023-03-23T03:47:29;24.23;;;18.52;;
23169;SDS011;11753;43.144;24.714;2023-03-23T03:48:30;23.35;;;18.48;;
23169;SDS011;11753;43.144;24.714;2023-03-23T03:49:31;21.67;;;16.85;;
23169;SDS011;11753;43.144;24.714;2023-03-23T03:50:32;23.67;;;18.23;;
23169;SDS011;11753;43.144;24.714;2023-03-23T03:51:34;25.55;;;17.58;;
23169;SDS011;11753;43.144;24.714;2023-03-23T03:52:36;23.35;;;17.10;;
23169;SDS011;11753;43.144;24.714;2023-03-23T03:53:39;22.33;;;16.90;;
23169;SDS011;11753;43.144;24.714;2023-03-23T03:54:40;23.02;;;16.75;;
23169;SDS011;11753;43.144;24.714;2023-03-23T03:55:41;22.85;;;17.63;;
23169;SDS011;11753;43.144;24.714;2023-03-23T03:56:45;22.98;;;17.73;;
23169;SDS011;11753;43.144;24.714;2023-03-23T03:57:47;23.95;;;17.17;;
23169;SDS011;11753;43.144;24.714;2023-03-23T03:58:49;22.83;;;16.52;;
23169;SDS011;11753;43.144;24.714;2023-03-23T03:59:50;22.17;;;16.92;;
23169;SDS011;11753;43.144;24.714;2023-03-23T04:00:50;27.15;;;18.55;;
23169;SDS011;11753;43.144;24.714;2023-03-23T04:01:53;27.77;;;19.52;;
23169;SDS011;11753;43.144;24.714;2023-03-23T04:02:54;26.65;;;19.38;;
23169;SDS011;11753;43.144;24.714;2023-03-23T04:03:55;23.33;;;17.50;;
23169;SDS011;11753;43.144;24.714;2023-03-23T04:04:56;24.38;;;17.85;;
23169;SDS011;11753;43.144;24.714;2023-03-23T04:05:57;24.27;;;17.73;;
23169;SDS011;11753;43.144;24.714;2023-03-23T04:06:59;23.25;;;17.23;;
23169;SDS011;11753;43.144;24.714;2023-03-23T04:08:03;23.90;;;17.33;;
23169;SDS011;11753;43.144;24.714;2023-03-23T04:09:05;24.02;;;17.60;;
23169;SDS011;11753;43.144;24.714;2023-03-23T04:10:08;22.92;;;16.92;;
23169;SDS011;11753;43.144;24.714;2023-03-23T04:11:11;23.42;;;17.52;;
23169;SDS011;11753;43.144;24.714;2023-03-23T04:12:14;23.13;;;17.45;;
23169;SDS011;11753;43.144;24.714;2023-03-23T04:13:16;23.17;;;17.23;;
23169;SDS011;11753;43.144;24.714;2023-03-23T04:14:18;23.20;;;17.25;;
23169;SDS011;11753;43.144;24.714;2023-03-23T04:15:18;25.05;;;17.45;;
23169;SDS011;11753;43.144;24.714;2023-03-23T04:16:19;24.65;;;18.30;;
23169;SDS011;11753;43.144;24.714;2023-03-23T04:17:21;26.52;;;19.08;;
23169;SDS011;11753;43.144;24.714;2023-03-23T04:18:21;24.52;;;18.08;;
23169;SDS011;11753;43.144;24.714;2023-03-23T04:19:24;24.25;;;17.67;;
23169;SDS011;11753;43.144;24.714;2023-03-23T04:20:26;24.67;;;18.25;;
23169;SDS011;11753;43.144;24.714;2023-03-23T04:21:27;24.65;;;18.42;;
23169;SDS011;11753;43.144;24.714;2023-03-23T04:22:30;24.88;;;17.95;;
23169;SDS011;11753;43.144;24.714;2023-03-23T04:23:31;24.83;;;17.98;;
23169;SDS011;11753;43.144;24.714;2023-03-23T04:24:34;22.00;;;17.23;;
23169;SDS011;11753;43.144;24.714;2023-03-23T04:25:36;24.90;;;17.85;;
23169;SDS011;11753;43.144;24.714;2023-03-23T04:26:37;23.65;;;17.55;;
23169;SDS011;11753;43.144;24.714;2023-03-23T04:27:40;24.27;;;18.73;;
23169;SDS011;11753;43.144;24.714;2023-03-23T04:28:43;24.45;;;17.95;;
23169;SDS011;11753;43.144;24.714;2023-03-23T04:29:44;22.55;;;17.60;;
23169;SDS011;11753;43.144;24.714;2023-03-23T04:30:51;24.42;;;17.88;;
23169;SDS011;11753;43.144;24.714;2023-03-23T04:31:55;26.52;;;19.15;;
23169;SDS011;11753;43.144;24.714;2023-03-23T04:32:56;28.45;;;20.35;;
23169;SDS011;11753;43.144;24.714;2023-03-23T04:33:59;27.60;;;19.88;;
23169;SDS011;11753;43.144;24.714;2023-03-23T04:35:01;25.10;;;18.60;;
23169;SDS011;11753;43.144;24.714;2023-03-23T04:36:02;22.88;;;17.25;;
23169;SDS011;11753;43.144;24.714;2023-03-23T04:37:03;23.77;;;17.45;;
23169;SDS011;11753;43.144;24.714;2023-03-23T04:38:04;24.23;;;17.23;;
23169;SDS011;11753;43.144;24.714;2023-03-23T04:39:05;24.40;;;18.08;;
23169;SDS011;11753;43.144;24.714;2023-03-23T04:40:10;22.90;;;17.25;;
23169;SDS011;11753;43.144;24.714;2023-03-23T04:41:13;26.15;;;19.42;;
23169;SDS011;11753;43.144;24.714;2023-03-23T04:42:14;23.50;;;17.83;;
23169;SDS011;11753;43.144;24.714;2023-03-23T04:43:15;25.65;;;18.60;;
23169;SDS011;11753;43.144;24.714;2023-03-23T04:44:17;23.30;;;16.63;;
23169;SDS011;11753;43.144;24.714;2023-03-23T04:45:21;24.40;;;17.77;;
23169;SDS011;11753;43.144;24.714;2023-03-23T04:46:22;23.80;;;17.42;;
23169;SDS011;11753;43.144;24.714;2023-03-23T04:47:30;23.98;;;17.73;;
23169;SDS011;11753;43.144;24.714;2023-03-23T04:48:33;22.55;;;17.08;;
23169;SDS011;11753;43.144;24.714;2023-03-23T04:49:34;23.50;;;16.70;;
23169;SDS011;11753;43.144;24.714;2023-03-23T04:50:36;22.60;;;17.40;;
23169;SDS011;11753;43.144;24.714;2023-03-23T04:51:37;26.85;;;18.80;;
23169;SDS011;11753;43.144;24.714;2023-03-23T04:52:39;23.65;;;17.73;;
23169;SDS011;11753;43.144;24.714;2023-03-23T04:53:45;22.65;;;18.63;;
23169;SDS011;11753;43.144;24.714;2023-03-23T04:54:46;22.77;;;17.27;;
23169;SDS011;11753;43.144;24.714;2023-03-23T04:55:46;26.23;;;18.52;;
23169;SDS011;11753;43.144;24.714;2023-03-23T04:56:49;23.67;;;17.45;;
23169;SDS011;11753;43.144;24.714;2023-03-23T04:57:49;22.33;;;17.23;;
23169;SDS011;11753;43.144;24.714;2023-03-23T04:58:50;24.23;;;18.60;;
23169;SDS011;11753;43.144;24.714;2023-03-23T04:59:51;25.38;;;18.70;;
23169;SDS011;11753;43.144;24.714;2023-03-23T05:00:56;29.02;;;20.30;;
23169;SDS011;11753;43.144;24.714;2023-03-23T05:01:57;26.48;;;19.98;;
23169;SDS011;11753;43.144;24.714;2023-03-23T05:02:59;24.67;;;18.15;;
23169;SDS011;11753;43.144;24.714;2023-03-23T05:04:01;23.50;;;17.75;;
23169;SDS011;11753;43.144;24.714;2023-03-23T05:05:02;23.35;;;17.23;;
23169;SDS011;11753;43.144;24.714;2023-03-23T05:06:03;24.48;;;18.85;;
23169;SDS011;11753;43.144;24.714;2023-03-23T05:07:05;26.90;;;18.35;;
23169;SDS011;11753;43.144;24.714;2023-03-23T05:08:07;22.88;;;17.52;;
23169;SDS011;11753;43.144;24.714;2023-03-23T05:09:08;23.45;;;17.10;;
23169;SDS011;11753;43.144;24.714;2023-03-23T05:10:10;26.80;;;17.95;;
23169;SDS011;11753;43.144;24.714;2023-03-23T05:11:12;26.17;;;18.25;;
23169;SDS011;11753;43.144;24.714;2023-03-23T05:12:12;26.67;;;18.60;;
23169;SDS011;11753;43.144;24.714;2023-03-23T05:13:13;23.90;;;18.40;;
23169;SDS011;11753;43.144;24.714;2023-03-23T05:14:16;23.13;;;17.52;;
23169;SDS011;11753;43.144;24.714;2023-03-23T05:15:17;23.55;;;17.20;;
23169;SDS011;11753;43.144;24.714;2023-03-23T05:16:18;26.13;;;18.40;;
23169;SDS011;11753;43.144;24.714;2023-03-23T05:17:20;22.25;;;17.02;;
23169;SDS011;11753;43.144;24.714;2023-03-23T05:18:21;23.17;;;17.05;;
23169;SDS011;11753;43.144;24.714;2023-03-23T05:19:22;21.90;;;17.35;;
23169;SDS011;11753;43.144;24.714;2023-03-23T05:20:23;22.30;;;16.38;;
23169;SDS011;11753;43.144;24.714;2023-03-23T05:21:25;25.52;;;17.77;;
23169;SDS011;11753;43.144;24.714;2023-03-23T05:22:27;24.25;;;17.05;;
23169;SDS011;11753;43.144;24.714;2023-03-23T05:23:28;22.20;;;16.85;;
23169;SDS011;11753;43.144;24.714;2023-03-23T05:24:31;26.98;;;20.17;;
23169;SDS011;11753;43.144;24.714;2023-03-23T05:25:36;24.35;;;18.63;;
23169;SDS011;11753;43.144;24.714;2023-03-23T05:26:40;23.27;;;17.45;;
23169;SDS011;11753;43.144;24.714;2023-03-23T05:27:40;22.65;;;17.23;;
23169;SDS011;11753;43.144;24.714;2023-03-23T05:28:48;27.33;;;17.88;;
23169;SDS011;11753;43.144;24.714;2023-03-23T05:29:54;23.48;;;17.52;;
23169;SDS011;11753;43.144;24.714;2023-03-23T05:30:55;24.30;;;17.67;;
23169;SDS011;11753;43.144;24.714;2023-03-23T05:31:58;28.13;;;19.50;;
23169;SDS011;11753;43.144;24.714;2023-03-23T05:33:02;85.38;;;44.00;;
23169;SDS011;11753;43.144;24.714;2023-03-23T05:34:03;66.85;;;36.53;;
23169;SDS011;11753;43.144;24.714;2023-03-23T05:35:04;44.22;;;27.52;;
23169;SDS011;11753;43.144;24.714;2023-03-23T05:36:06;40.53;;;24.88;;
23169;SDS011;11753;43.144;24.714;2023-03-23T05:37:11;36.33;;;21.80;;
23169;SDS011;11753;43.144;24.714;2023-03-23T05:38:12;38.25;;;26.45;;
23169;SDS011;11753;43.144;24.714;2023-03-23T05:39:15;44.83;;;29.08;;
23169;SDS011;11753;43.144;24.714;2023-03-23T05:40:17;55.75;;;33.92;;
23169;SDS011;11753;43.144;24.714;2023-03-23T05:41:18;113.95;;;60.75;;
23169;SDS011;11753;43.144;24.714;2023-03-23T05:42:20;99.93;;;57.22;;
23169;SDS011;11753;43.144;24.714;2023-03-23T05:43:22;84.40;;;48.60;;
23169;SDS011;11753;43.144;24.714;2023-03-23T05:44:23;77.82;;;43.85;;
23169;SDS011;11753;43.144;24.714;2023-03-23T05:45:25;79.90;;;47.58;;
23169;SDS011;11753;43.144;24.714;2023-03-23T05:46:27;85.80;;;54.25;;
23169;SDS011;11753;43.144;24.714;2023-03-23T05:47:28;90.00;;;56.17;;
23169;SDS011;11753;43.144;24.714;2023-03-23T05:48:30;125.15;;;77.38;;
23169;SDS011;11753;43.144;24.714;2023-03-23T05:49:31;119.20;;;76.35;;
23169;SDS011;11753;43.144;24.714;2023-03-23T05:50:33;82.93;;;51.88;;
23169;SDS011;11753;43.144;24.714;2023-03-23T05:51:34;66.53;;;43.95;;
23169;SDS011;11753;43.144;24.714;2023-03-23T05:52:36;61.10;;;42.35;;
23169;SDS011;11753;43.144;24.714;2023-03-23T05:53:37;56.50;;;41.28;;
23169;SDS011;11753;43.144;24.714;2023-03-23T05:54:37;56.88;;;41.75;;
23169;SDS011;11753;43.144;24.714;2023-03-23T05:55:38;53.13;;;41.50;;
23169;SDS011;11753;43.144;24.714;2023-03-23T05:56:40;50.60;;;39.35;;
23169;SDS011;11753;43.144;24.714;2023-03-23T05:57:40;68.85;;;52.40;;
23169;SDS011;11753;43.144;24.714;2023-03-23T05:58:42;61.88;;;49.33;;
23169;SDS011;11753;43.144;24.714;2023-03-23T05:59:43;54.88;;;42.55;;
23169;SDS011;11753;43.144;24.714;2023-03-23T06:00:45;54.40;;;40.92;;
23169;SDS011;11753;43.144;24.714;2023-03-23T06:01:47;46.67;;;35.78;;
23169;SDS011;11753;43.144;24.714;2023-03-23T06:02:48;38.33;;;29.17;;
23169;SDS011;11753;43.144;24.714;2023-03-23T06:03:51;36.33;;;26.65;;
23169;SDS011;11753;43.144;24.714;2023-03-23T06:04:54;30.75;;;24.13;;
23169;SDS011;11753;43.144;24.714;2023-03-23T06:05:57;29.95;;;22.33;;
23169;SDS011;11753;43.144;24.714;2023-03-23T06:07:01;30.67;;;22.30;;
23169;SDS011;11753;43.144;24.714;2023-03-23T06:08:02;34.95;;;27.17;;
23169;SDS011;11753;43.144;24.714;2023-03-23T06:09:03;34.72;;;27.55;;
23169;SDS011;11753;43.144;24.714;2023-03-23T06:10:07;35.30;;;27.40;;
23169;SDS011;11753;43.144;24.714;2023-03-23T06:11:09;32.60;;;24.55;;
23169;SDS011;11753;43.144;24.714;2023-03-23T06:12:11;30.77;;;23.38;;
23169;SDS011;11753;43.144;24.714;2023-03-23T06:13:12;28.23;;;20.30;;
23169;SDS011;11753;43.144;24.714;2023-03-23T06:14:13;26.40;;;19.63;;
23169;SDS011;11753;43.144;24.714;2023-03-23T06:15:14;26.75;;;19.75;;
23169;SDS011;11753;43.144;24.714;2023-03-23T06:16:15;24.75;;;18.85;;
23169;SDS011;11753;43.144;24.714;2023-03-23T06:17:16;26.25;;;19.00;;
23169;SDS011;11753;43.144;24.714;2023-03-23T06:18:17;25.17;;;18.23;;
23169;SDS011;11753;43.144;24.714;2023-03-23T06:19:21;24.83;;;17.55;;
23169;SDS011;11753;43.144;24.714;2023-03-23T06:20:23;24.65;;;17.73;;
23169;SDS011;11753;43.144;24.714;2023-03-23T06:21:25;26.83;;;18.88;;
23169;SDS011;11753;43.144;24.714;2023-03-23T06:22:26;30.75;;;22.13;;
23169;SDS011;11753;43.144;24.714;2023-03-23T06:23:26;30.98;;;21.38;;
23169;SDS011;11753;43.144;24.714;2023-03-23T06:24:27;25.00;;;18.90;;
23169;SDS011;11753;43.144;24.714;2023-03-23T06:25:28;29.98;;;20.80;;
23169;SDS011;11753;43.144;24.714;2023-03-23T06:26:30;26.17;;;19.23;;
23169;SDS011;11753;43.144;24.714;2023-03-23T06:27:35;30.80;;;22.05;;
23169;SDS011;11753;43.144;24.714;2023-03-23T06:28:36;28.55;;;19.75;;
23169;SDS011;11753;43.144;24.714;2023-03-23T06:29:37;27.60;;;20.73;;